Time;durP1;ratioP1;P1;durP2;ratioP2;P2;SDS_P1;SDS_P2;PMS_P1;PMS_P2;Temp;Humidity;BMP_temperature;BMP_pressure;BME280_temperature;BME280_humidity;BME280_pressure;Samples;Min_cycle;Max_cycle;Signal;HPM_P1;HPM_P2
2023/09/10 00:01:05;;;;;;;32.05;19.85;;;;;16.10;96590.00;;;;8312129;28;20231;-66
2023/09/10 00:05:10;;;;;;;28.27;17.38;;;;;16.00;96593.00;;;;8313905;28;20255;-68
2023/09/10 00:09:16;;;;;;;26.67;17.10;;;;;16.00;96579.00;;;;8312160;28;20225;-67
2023/09/10 00:13:21;;;;;;;25.45;16.73;;;;;16.00;96587.00;;;;8306796;28;20949;-67
2023/09/10 00:17:24;;;;;;;26.08;16.42;;;;;16.00;96585.00;;;;8301490;28;20194;-67
2023/09/10 00:21:28;;;;;;;23.63;16.25;;;;;16.00;96581.00;;;;8304920;28;20202;-68
2023/09/10 00:25:33;;;;;;;27.40;17.80;;;;;16.00;96589.00;;;;8309259;28;20284;-66
2023/09/10 00:29:36;;;;;;;24.30;16.85;;;;;15.90;96597.00;;;;8299116;28;20226;-67
2023/09/10 00:33:39;;;;;;;27.65;16.48;;;;;15.90;96593.00;;;;8304174;28;20205;-67
2023/09/10 00:37:44;;;;;;;26.52;16.88;;;;;15.90;96593.00;;;;8290836;28;20208;-68
2023/09/10 00:41:48;;;;;;;24.35;16.45;;;;;15.80;96591.00;;;;8301148;28;20202;-68
2023/09/10 00:45:51;;;;;;;29.52;16.77;;;;;15.80;96594.00;;;;8304220;28;20200;-68
2023/09/10 00:49:55;;;;;;;23.85;15.50;;;;;15.80;96591.00;;;;8301851;28;21016;-67
2023/09/10 00:54:02;;;;;;;28.08;15.45;;;;;15.80;96588.00;;;;8284737;28;20198;-69
2023/09/10 00:58:06;;;;;;;29.55;17.42;;;;;15.80;96588.00;;;;8313319;28;20240;-66
2023/09/10 01:02:15;;;;;;;25.25;16.33;;;;;15.70;96582.00;;;;8311884;28;20204;-66
2023/09/10 01:06:20;;;;;;;30.48;16.88;;;;;15.60;96574.00;;;;8312452;28;20209;-66
2023/09/10 01:10:34;;;;;;;24.10;16.17;;;;;15.50;96577.00;;;;8305696;28;20217;-66
2023/09/10 01:14:41;;;;;;;33.55;18.30;;;;;15.50;96581.00;;;;8305140;28;20193;-66
2023/09/10 01:18:47;;;;;;;28.45;17.20;;;;;15.50;96578.00;;;;8300808;28;20211;-67
2023/09/10 01:23:04;;;;;;;23.20;15.85;;;;;15.50;96582.00;;;;8306175;28;20264;-67
2023/09/10 01:27:08;;;;;;;27.70;16.17;;;;;15.50;96577.00;;;;8304349;28;20207;-66
2023/09/10 01:31:12;;;;;;;26.00;17.20;;;;;15.50;96580.00;;;;8307505;28;20828;-67
2023/09/10 01:35:21;;;;;;;21.08;14.45;;;;;15.50;96583.00;;;;8305207;28;20808;-67
2023/09/10 01:39:36;;;;;;;24.27;16.00;;;;;15.40;96579.00;;;;8301599;28;20745;-66
2023/09/10 01:43:41;;;;;;;25.13;15.98;;;;;15.40;96584.00;;;;8297161;28;20225;-68
2023/09/10 01:47:49;;;;;;;32.40;16.85;;;;;15.30;96582.00;;;;8309837;28;20201;-66
2023/09/10 01:51:54;;;;;;;28.98;16.83;;;;;15.30;96582.00;;;;8293192;28;20229;-66
2023/09/10 01:55:57;;;;;;;28.20;16.75;;;;;15.30;96588.00;;;;8303517;28;20202;-66
2023/09/10 02:00:07;;;;;;;25.38;16.85;;;;;15.20;96587.00;;;;8297404;28;20206;-67
2023/09/10 02:04:10;;;;;;;26.75;16.70;;;;;15.10;96579.00;;;;8297211;28;20268;-67
2023/09/10 02:08:15;;;;;;;25.42;16.70;;;;;15.10;96584.00;;;;8316765;28;20209;-68
2023/09/10 02:12:20;;;;;;;28.52;15.95;;;;;15.00;96578.00;;;;8310460;28;20574;-67
2023/09/10 02:16:27;;;;;;;28.08;16.73;;;;;15.10;96582.00;;;;8292796;28;20199;-66
2023/09/10 02:20:38;;;;;;;21.83;14.25;;;;;15.10;96586.00;;;;8306831;28;20206;-66
2023/09/10 02:24:41;;;;;;;31.52;17.30;;;;;15.00;96584.00;;;;8310035;28;20198;-67
2023/09/10 02:28:47;;;;;;;25.50;15.80;;;;;15.00;96591.00;;;;8297052;28;21063;-67
2023/09/10 02:32:53;;;;;;;23.25;14.63;;;;;15.00;96583.00;;;;8291863;28;20241;-67
2023/09/10 02:37:02;;;;;;;27.83;15.88;;;;;15.10;96593.00;;;;8300202;28;20204;-67
2023/09/10 02:41:05;;;;;;;23.48;14.13;;;;;15.10;96593.00;;;;8292234;28;20289;-67
2023/09/10 02:45:09;;;;;;;22.48;14.15;;;;;15.20;96594.00;;;;8296363;28;20646;-68
2023/09/10 02:49:20;;;;;;;25.10;16.13;;;;;15.10;96592.00;;;;8303063;28;20224;-66
2023/09/10 02:53:23;;;;;;;26.98;16.45;;;;;15.00;96593.00;;;;8317170;28;20635;-67
2023/09/10 02:57:27;;;;;;;29.20;15.80;;;;;15.00;96600.00;;;;8315445;28;20236;-66
2023/09/10 03:01:30;;;;;;;25.63;15.20;;;;;15.00;96589.00;;;;8341031;22;20272;-66
2023/09/10 03:05:35;;;;;;;25.98;15.48;;;;;14.90;96590.00;;;;8314900;28;20235;-66
2023/09/10 03:09:39;;;;;;;24.77;16.48;;;;;14.90;96590.00;;;;8314153;28;20232;-67
2023/09/10 03:13:43;;;;;;;26.45;15.77;;;;;14.80;96592.00;;;;8298841;28;20643;-66
2023/09/10 03:17:54;;;;;;;32.92;17.65;;;;;14.80;96589.00;;;;8305147;28;20200;-66
2023/09/10 03:21:59;;;;;;;30.02;17.10;;;;;14.80;96595.00;;;;8315184;28;20193;-67
2023/09/10 03:26:02;;;;;;;26.33;15.55;;;;;14.80;96590.00;;;;8313008;28;20323;-66
2023/09/10 03:30:08;;;;;;;27.38;15.82;;;;;14.80;96590.00;;;;8314680;28;20230;-66
2023/09/10 03:34:11;;;;;;;18.85;12.38;;;;;14.70;96592.00;;;;8315690;28;20236;-66
2023/09/10 03:38:16;;;;;;;23.63;14.15;;;;;14.80;96594.00;;;;8297063;28;20227;-66
2023/09/10 03:42:21;;;;;;;24.40;15.38;;;;;14.80;96590.00;;;;8313660;28;20201;-66
2023/09/10 03:46:26;;;;;;;26.90;15.20;;;;;14.80;96582.00;;;;8314573;28;20204;-67
2023/09/10 03:50:29;;;;;;;26.20;15.48;;;;;14.70;96578.00;;;;8313352;28;20229;-65
2023/09/10 03:54:36;;;;;;;24.63;15.90;;;;;14.70;96584.00;;;;8315924;28;20284;-65
2023/09/10 03:58:39;;;;;;;26.95;16.08;;;;;14.70;96579.00;;;;8314128;28;20713;-66
2023/09/10 04:02:44;;;;;;;27.48;15.40;;;;;14.60;96579.00;;;;8308701;28;20228;-66
2023/09/10 04:06:48;;;;;;;20.50;14.13;;;;;14.60;96579.00;;;;8313695;28;20200;-66
2023/09/10 04:10:57;;;;;;;26.90;15.00;;;;;14.60;96575.00;;;;8304155;28;20886;-66
2023/09/10 04:15:01;;;;;;;26.80;15.40;;;;;14.60;96577.00;;;;8313224;28;20208;-67
2023/09/10 04:19:04;;;;;;;36.33;17.30;;;;;14.50;96577.00;;;;8314847;28;20279;-66
2023/09/10 04:23:07;;;;;;;24.92;15.73;;;;;14.50;96575.00;;;;8312956;28;20201;-67
2023/09/10 04:27:12;;;;;;;24.48;15.23;;;;;14.50;96587.00;;;;8297277;28;20201;-66
2023/09/10 04:31:17;;;;;;;24.13;14.48;;;;;14.40;96583.00;;;;8312475;28;20256;-66
2023/09/10 04:35:21;;;;;;;27.67;15.82;;;;;14.30;96588.00;;;;8314099;28;20208;-67
2023/09/10 04:39:24;;;;;;;28.00;16.33;;;;;14.30;96604.00;;;;8314870;28;20234;-66
2023/09/10 04:43:31;;;;;;;24.50;16.17;;;;;14.30;96595.00;;;;8312960;28;20201;-66
2023/09/10 04:47:35;;;;;;;32.13;14.98;;;;;14.30;96600.00;;;;8312323;28;20197;-66
2023/09/10 04:51:38;;;;;;;26.30;15.85;;;;;14.30;96607.00;;;;8311876;28;20665;-65
2023/09/10 04:55:44;;;;;;;28.58;16.83;;;;;14.30;96614.00;;;;8313511;28;20197;-66
2023/09/10 04:59:51;;;;;;;31.33;17.30;;;;;14.40;96617.00;;;;8313597;28;20239;-66
2023/09/10 05:03:54;;;;;;;28.85;16.75;;;;;14.50;96620.00;;;;8310723;28;20319;-66
2023/09/10 05:07:58;;;;;;;31.48;17.73;;;;;14.60;96620.00;;;;8314474;28;20818;-66
2023/09/10 05:12:04;;;;;;;27.35;16.75;;;;;14.60;96622.00;;;;8313162;28;20238;-65
2023/09/10 05:16:10;;;;;;;28.00;16.80;;;;;14.60;96624.00;;;;8309879;28;20247;-65
2023/09/10 05:20:16;;;;;;;25.85;15.65;;;;;14.70;96623.00;;;;8310708;28;20269;-65
2023/09/10 05:24:20;;;;;;;24.00;15.48;;;;;14.80;96631.00;;;;8312217;28;20633;-65
2023/09/10 05:28:26;;;;;;;29.05;15.20;;;;;14.90;96637.00;;;;8314851;28;20580;-66
2023/09/10 05:32:31;;;;;;;30.05;15.93;;;;;15.00;96631.00;;;;8306994;28;20721;-66
2023/09/10 05:36:36;;;;;;;28.02;17.08;;;;;15.10;96637.00;;;;8320444;28;20193;-65
2023/09/10 05:40:41;;;;;;;33.47;18.02;;;;;15.30;96635.00;;;;8318434;28;20225;-67
2023/09/10 05:44:51;;;;;;;26.50;16.35;;;;;15.40;96638.00;;;;8316195;28;20285;-66
2023/09/10 05:48:55;;;;;;;25.10;16.50;;;;;15.60;96634.00;;;;8318110;28;20206;-66
2023/09/10 05:53:00;;;;;;;29.73;15.90;;;;;15.70;96639.00;;;;8317956;28;20317;-65
2023/09/10 05:57:06;;;;;;;23.20;15.60;;;;;15.90;96641.00;;;;8314761;28;20198;-66
2023/09/10 06:01:09;;;;;;;23.77;15.82;;;;;16.10;96631.00;;;;8314740;28;20193;-66
2023/09/10 06:05:15;;;;;;;20.55;14.52;;;;;16.30;96642.00;;;;8306577;28;20202;-67
2023/09/10 06:09:19;;;;;;;23.73;16.25;;;;;16.50;96643.00;;;;8318920;28;20221;-64
2023/09/10 06:13:28;;;;;;;25.73;16.10;;;;;16.60;96647.00;;;;8316067;28;20772;-66
2023/09/10 06:17:31;;;;;;;23.88;16.17;;;;;16.80;96648.00;;;;8316025;28;20201;-65
2023/09/10 06:21:36;;;;;;;23.85;16.20;;;;;17.00;96646.00;;;;8318508;28;20940;-67
2023/09/10 06:25:40;;;;;;;23.80;15.57;;;;;17.20;96650.00;;;;8311820;28;20252;-64
2023/09/10 06:29:45;;;;;;;23.00;15.20;;;;;17.40;96647.00;;;;8313672;28;20251;-66
2023/09/10 06:33:49;;;;;;;22.58;14.80;;;;;17.70;96657.00;;;;8314986;28;20206;-64
2023/09/10 06:37:54;;;;;;;24.15;14.98;;;;;17.90;96647.00;;;;8305492;28;20204;-64
2023/09/10 06:41:58;;;;;;;19.58;14.07;;;;;18.10;96649.00;;;;8314552;28;20201;-64
2023/09/10 06:46:01;;;;;;;19.70;14.07;;;;;18.40;96650.00;;;;8311813;28;20205;-63
2023/09/10 06:50:06;;;;;;;22.83;14.98;;;;;18.60;96656.00;;;;8316760;28;20225;-63
2023/09/10 06:54:11;;;;;;;21.38;15.60;;;;;18.80;96658.00;;;;8315476;28;20216;-64
2023/09/10 06:58:17;;;;;;;22.85;15.70;;;;;19.20;96656.00;;;;8310811;28;20202;-64
2023/09/10 07:02:21;;;;;;;23.08;14.77;;;;;19.40;96661.00;;;;8308160;28;20324;-65
2023/09/10 07:06:24;;;;;;;23.02;15.40;;;;;19.70;96662.00;;;;8315301;28;20206;-66
2023/09/10 07:10:30;;;;;;;25.52;13.68;;;;;19.90;96659.00;;;;8317370;28;20217;-66
2023/09/10 07:14:33;;;;;;;28.60;15.77;;;;;20.20;96656.00;;;;8308828;28;20666;-66
2023/09/10 07:18:39;;;;;;;22.40;14.05;;;;;20.50;96664.00;;;;8306945;28;20204;-66
2023/09/10 07:22:42;;;;;;;22.17;14.23;;;;;20.90;96664.00;;;;8308227;28;20334;-67
2023/09/10 07:26:51;;;;;;;17.40;13.23;;;;;21.20;96667.00;;;;8305682;28;20213;-67
2023/09/10 07:30:56;;;;;;;22.75;14.10;;;;;21.60;96660.00;;;;8288762;28;20221;-65
2023/09/10 07:35:07;;;;;;;16.95;12.55;;;;;22.00;96651.00;;;;8305081;28;20301;-66
2023/09/10 07:39:14;;;;;;;21.45;12.00;;;;;22.40;96659.00;;;;8304290;28;20209;-67
2023/09/10 07:43:18;;;;;;;16.45;11.40;;;;;22.80;96657.00;;;;8306606;28;20240;-67
2023/09/10 07:47:23;;;;;;;16.17;11.43;;;;;23.20;96663.00;;;;8313176;28;20258;-66
2023/09/10 07:51:26;;;;;;;17.10;10.98;;;;;23.60;96665.00;;;;8297751;28;20642;-67
2023/09/10 07:55:29;;;;;;;14.93;9.60;;;;;24.10;96668.00;;;;8311754;28;20202;-67
2023/09/10 07:59:34;;;;;;;13.25;10.02;;;;;24.50;96668.00;;;;8304135;28;20559;-66
2023/09/10 08:03:38;;;;;;;13.35;9.63;;;;;25.10;96675.00;;;;8287273;28;20244;-69
2023/09/10 08:07:42;;;;;;;14.98;10.05;;;;;25.60;96667.00;;;;8312482;28;20339;-67
2023/09/10 08:11:48;;;;;;;16.02;9.10;;;;;26.00;96673.00;;;;8309795;28;20257;-67
2023/09/10 08:15:53;;;;;;;11.40;8.77;;;;;26.40;96669.00;;;;8307790;28;20761;-66
2023/09/10 08:20:01;;;;;;;11.32;9.07;;;;;26.80;96669.00;;;;8312503;28;20189;-66
2023/09/10 08:24:07;;;;;;;11.05;9.10;;;;;27.40;96668.00;;;;8311208;28;20632;-66
2023/09/10 08:28:10;;;;;;;10.40;7.97;;;;;28.30;96672.00;;;;8301571;28;20201;-66
2023/09/10 08:32:15;;;;;;;12.48;8.68;;;;;29.00;96677.00;;;;8309793;28;20217;-66
2023/09/10 08:36:19;;;;;;;13.20;9.50;;;;;29.60;96682.00;;;;8312107;28;20227;-66
2023/09/10 08:40:23;;;;;;;9.43;8.40;;;;;30.10;96682.00;;;;8307825;28;20296;-66
2023/09/10 08:44:29;;;;;;;10.60;8.55;;;;;30.30;96683.00;;;;8298462;28;20284;-66
2023/09/10 08:48:40;;;;;;;10.05;8.70;;;;;30.60;96682.00;;;;8309219;28;20225;-67
2023/09/10 08:52:48;;;;;;;11.55;8.15;;;;;31.10;96680.00;;;;8313005;28;20331;-67
2023/09/10 08:56:55;;;;;;;9.35;7.90;;;;;31.50;96678.00;;;;8306205;28;20205;-67
2023/09/10 09:01:00;;;;;;;12.80;9.07;;;;;31.80;96683.00;;;;8314968;28;20205;-65
2023/09/10 09:05:05;;;;;;;10.35;8.55;;;;;32.00;96690.00;;;;8308124;28;20228;-65
2023/09/10 09:09:17;;;;;;;18.08;9.02;;;;;32.30;96683.00;;;;8310834;28;21054;-64
2023/09/10 09:13:23;;;;;;;13.15;8.60;;;;;32.70;96688.00;;;;8306947;28;20319;-65
2023/09/10 09:17:26;;;;;;;10.90;9.52;;;;;33.10;96695.00;;;;8324101;28;20197;-65
2023/09/10 09:21:33;;;;;;;9.43;8.40;;;;;33.30;96700.00;;;;8319235;28;20649;-65
2023/09/10 09:25:39;;;;;;;9.40;8.50;;;;;33.70;96693.00;;;;8319938;28;20205;-67
2023/09/10 09:29:43;;;;;;;11.82;9.63;;;;;33.90;96691.00;;;;8300707;28;20209;-67
2023/09/10 09:33:47;;;;;;;11.48;9.25;;;;;33.90;96694.00;;;;8315336;28;20704;-67
2023/09/10 09:37:51;;;;;;;11.82;8.32;;;;;34.10;96686.00;;;;8315615;28;20729;-67
2023/09/10 09:42:02;;;;;;;11.30;7.93;;;;;34.40;96686.00;;;;8314564;28;20209;-67
2023/09/10 09:46:06;;;;;;;12.65;8.95;;;;;34.40;96685.00;;;;8315171;28;20225;-67
2023/09/10 09:50:16;;;;;;;12.45;8.75;;;;;34.50;96686.00;;;;8316126;28;20713;-67
2023/09/10 09:54:21;;;;;;;9.52;8.63;;;;;34.40;96680.00;;;;8315082;28;20686;-67
2023/09/10 09:58:30;;;;;;;10.25;8.25;;;;;34.30;96677.00;;;;8317661;28;20198;-67
2023/09/10 10:02:38;;;;;;;12.02;8.68;;;;;34.60;96676.00;;;;8310873;28;20666;-67
2023/09/10 10:06:47;;;;;;;11.85;9.05;;;;;34.80;96676.00;;;;8317127;28;20225;-67
2023/09/10 10:10:53;;;;;;;14.57;8.30;;;;;35.00;96672.00;;;;8314474;28;20233;-67
2023/09/10 10:14:59;;;;;;;9.48;8.13;;;;;35.10;96666.00;;;;8303271;28;20211;-67
2023/09/10 10:19:04;;;;;;;13.27;8.65;;;;;35.20;96656.00;;;;8322532;28;20217;-67
2023/09/10 10:23:11;;;;;;;9.48;8.48;;;;;35.30;96660.00;;;;8324268;28;20193;-67
2023/09/10 10:27:32;;;;;;;9.45;8.00;;;;;35.30;96667.00;;;;8319131;28;20201;-67
2023/09/10 10:31:39;;;;;;;9.48;7.30;;;;;35.40;96653.00;;;;8318163;28;20223;-67
2023/09/10 10:35:56;;;;;;;9.68;8.55;;;;;35.30;96657.00;;;;8317234;28;20198;-67
2023/09/10 10:40:07;;;;;;;11.35;7.93;;;;;34.40;96647.00;;;;8318499;28;20200;-67
2023/09/10 10:44:20;;;;;;;9.02;8.05;;;;;33.60;96644.00;;;;8312519;28;20213;-67
2023/09/10 10:48:26;;;;;;;8.50;7.40;;;;;33.30;96647.00;;;;8320681;28;20197;-65
2023/09/10 10:52:34;;;;;;;14.45;8.00;;;;;33.60;96644.00;;;;8317462;28;20259;-67
2023/09/10 10:56:46;;;;;;;10.70;8.10;;;;;33.90;96644.00;;;;8343005;28;20295;-67
2023/09/10 11:00:52;;;;;;;9.77;7.10;;;;;34.30;96648.00;;;;8332108;28;20288;-67
2023/09/10 11:05:00;;;;;;;9.15;7.57;;;;;34.40;96642.00;;;;8325295;28;20307;-67
2023/09/10 11:09:35;;;;;;;8.95;7.28;;;;;34.50;96643.00;;;;8305442;28;20794;-67
2023/09/10 11:14:03;;;;;;;11.80;8.10;;;;;34.70;96640.00;;;;8319775;28;20317;-67
2023/09/10 11:18:46;;;;;;;10.27;7.55;;;;;34.50;96639.00;;;;8303675;28;20837;-67
2023/09/10 11:23:11;;;;;;;8.98;8.07;;;;;34.10;96631.00;;;;8321244;28;20725;-67
2023/09/10 11:27:20;;;;;;;16.85;7.70;;;;;34.10;96627.00;;;;8319293;28;20935;-67
2023/09/10 11:31:45;;;;;;;10.38;7.20;;;;;34.30;96623.00;;;;8317267;28;20225;-67
2023/09/10 11:35:53;;;;;;;11.20;7.70;;;;;34.40;96624.00;;;;8324015;28;20788;-68
2023/09/10 11:40:03;;;;;;;10.18;7.93;;;;;34.60;96623.00;;;;8317555;28;20883;-65
2023/09/10 11:44:08;;;;;;;10.73;7.82;;;;;35.00;96623.00;;;;8317923;28;20582;-68
2023/09/10 11:48:11;;;;;;;9.88;7.65;;;;;35.30;96626.00;;;;8312842;28;20198;-68
2023/09/10 11:52:17;;;;;;;9.75;7.25;;;;;35.40;96623.00;;;;8315521;28;20230;-68
2023/09/10 11:56:20;;;;;;;12.48;7.70;;;;;35.40;96619.00;;;;8315497;28;20198;-68
2023/09/10 12:00:26;;;;;;;8.05;7.30;;;;;35.30;96620.00;;;;8320017;28;20779;-68
2023/09/10 12:04:29;;;;;;;9.23;7.38;;;;;34.80;96623.00;;;;8299217;28;21054;-68
2023/09/10 12:08:35;;;;;;;9.77;7.55;;;;;34.30;96610.00;;;;8316434;28;20209;-68
2023/09/10 12:12:46;;;;;;;9.05;7.53;;;;;34.10;96606.00;;;;8296500;28;20261;-68
2023/09/10 12:16:51;;;;;;;8.57;7.78;;;;;34.30;96613.00;;;;8315641;28;21947;-68
2023/09/10 12:20:58;;;;;;;9.45;7.70;;;;;34.40;96601.00;;;;8308771;28;20211;-68
2023/09/10 12:25:05;;;;;;;10.15;7.15;;;;;34.60;96597.00;;;;8317541;28;20282;-68
2023/09/10 12:29:08;;;;;;;9.45;7.53;;;;;34.80;96601.00;;;;8313431;28;20661;-67
2023/09/10 12:33:14;;;;;;;8.00;7.05;;;;;34.90;96593.00;;;;8309223;28;20225;-68
2023/09/10 12:37:19;;;;;;;7.50;6.80;;;;;35.10;96590.00;;;;8312964;28;20751;-68
2023/09/10 12:41:24;;;;;;;8.52;6.55;;;;;35.20;96577.00;;;;8308685;28;20635;-68
2023/09/10 12:45:27;;;;;;;8.52;6.80;;;;;35.20;96577.00;;;;8311151;28;20918;-68
2023/09/10 12:49:30;;;;;;;8.98;7.05;;;;;35.30;96585.00;;;;8311066;28;20251;-68
2023/09/10 12:53:37;;;;;;;18.65;12.68;;;;;35.50;96590.00;;;;8310570;28;20312;-68
2023/09/10 12:57:42;;;;;;;11.02;7.35;;;;;35.70;96577.00;;;;8310067;28;20927;-69
2023/09/10 13:01:45;;;;;;;9.52;7.60;;;;;35.70;96583.00;;;;8312071;28;20221;-69
2023/09/10 13:05:49;;;;;;;10.80;7.18;;;;;35.70;96574.00;;;;8310774;28;20696;-68
2023/09/10 13:09:55;;;;;;;10.18;7.05;;;;;35.80;96574.00;;;;8310276;28;20202;-68
2023/09/10 13:14:01;;;;;;;7.25;6.43;;;;;35.80;96576.00;;;;8311979;28;20233;-68
2023/09/10 13:18:09;;;;;;;8.23;7.18;;;;;35.70;96575.00;;;;8294768;28;20197;-68
2023/09/10 13:22:12;;;;;;;7.97;6.95;;;;;35.60;96575.00;;;;8295603;28;20201;-69
2023/09/10 13:26:20;;;;;;;10.60;7.45;;;;;35.40;96569.00;;;;8312902;28;20288;-69
2023/09/10 13:30:25;;;;;;;7.63;6.82;;;;;35.40;96561.00;;;;8310900;28;20806;-69
2023/09/10 13:34:28;;;;;;;12.48;7.50;;;;;34.80;96564.00;;;;8312976;28;20241;-69
2023/09/10 13:38:32;;;;;;;9.57;7.00;;;;;34.30;96566.00;;;;8312021;28;20305;-69
2023/09/10 13:42:36;;;;;;;9.88;7.70;;;;;34.10;96566.00;;;;8312465;28;20609;-69
2023/09/10 13:46:41;;;;;;;8.55;7.40;;;;;34.00;96552.00;;;;8313414;28;20193;-69
2023/09/10 13:50:46;;;;;;;11.73;7.35;;;;;34.00;96550.00;;;;8312702;28;20206;-69
2023/09/10 13:54:49;;;;;;;11.95;7.72;;;;;34.00;96554.00;;;;8314676;28;20787;-69
2023/09/10 13:58:52;;;;;;;7.85;7.10;;;;;33.90;96549.00;;;;8316780;28;20280;-69
2023/09/10 14:02:57;;;;;;;8.00;7.20;;;;;33.70;96545.00;;;;8316889;28;20247;-69
2023/09/10 14:07:04;;;;;;;12.40;7.50;;;;;33.50;96547.00;;;;8317633;28;20197;-68
2023/09/10 14:11:07;;;;;;;11.27;7.50;;;;;33.20;96545.00;;;;8317999;28;20201;-69
2023/09/10 14:15:13;;;;;;;10.00;8.07;;;;;32.90;96542.00;;;;8318272;28;20225;-68
2023/09/10 14:19:20;;;;;;;8.35;6.90;;;;;32.50;96540.00;;;;8315992;28;20237;-69
2023/09/10 14:23:27;;;;;;;9.10;7.57;;;;;32.20;96551.00;;;;8315948;28;20880;-69
2023/09/10 14:27:32;;;;;;;10.40;7.78;;;;;31.90;96552.00;;;;8316746;28;20204;-69
2023/09/10 14:31:36;;;;;;;10.05;7.15;;;;;31.70;96546.00;;;;8316774;28;20202;-69
2023/09/10 14:35:42;;;;;;;9.18;7.32;;;;;32.00;96543.00;;;;8316196;28;20221;-68
2023/09/10 14:39:47;;;;;;;8.65;7.75;;;;;32.40;96548.00;;;;8318537;28;20762;-68
2023/09/10 14:43:51;;;;;;;11.80;7.28;;;;;32.30;96542.00;;;;8307519;28;20211;-68
2023/09/10 14:47:55;;;;;;;16.17;7.90;;;;;32.00;96541.00;;;;8313667;28;20203;-68
2023/09/10 14:51:59;;;;;;;11.77;7.18;;;;;31.80;96544.00;;;;8314103;28;20204;-66
2023/09/10 14:56:05;;;;;;;8.40;7.28;;;;;31.70;96545.00;;;;8289574;28;20229;-67
2023/09/10 15:00:10;;;;;;;9.30;7.65;;;;;31.70;96538.00;;;;8317074;28;20233;-68
2023/09/10 15:04:13;;;;;;;8.27;6.97;;;;;32.10;96541.00;;;;8312572;28;20312;-68
2023/09/10 15:08:19;;;;;;;8.45;7.22;;;;;32.50;96534.00;;;;8315945;28;20208;-68
2023/09/10 15:12:24;;;;;;;11.38;7.32;;;;;32.90;96525.00;;;;8322803;28;20240;-68
2023/09/10 15:16:31;;;;;;;11.25;7.20;;;;;33.10;96529.00;;;;8321102;28;20217;-68
2023/09/10 15:20:38;;;;;;;7.85;7.05;;;;;33.20;96527.00;;;;8300496;28;20301;-68
2023/09/10 15:24:43;;;;;;;8.13;7.32;;;;;33.20;96530.00;;;;8315734;28;20205;-68
2023/09/10 15:28:46;;;;;;;9.77;7.22;;;;;33.30;96524.00;;;;8316563;28;20197;-67
2023/09/10 15:32:50;;;;;;;7.53;6.75;;;;;33.40;96523.00;;;;8313381;28;20631;-68
2023/09/10 15:36:53;;;;;;;7.88;7.07;;;;;33.50;96521.00;;;;8312495;28;20204;-68
2023/09/10 15:40:58;;;;;;;10.77;7.47;;;;;33.50;96519.00;;;;8317310;28;20783;-67
2023/09/10 15:45:03;;;;;;;7.55;6.68;;;;;33.60;96511.00;;;;8306572;28;20817;-67
2023/09/10 15:49:07;;;;;;;9.63;7.18;;;;;33.70;96517.00;;;;8312026;28;20873;-67
2023/09/10 15:53:16;;;;;;;9.13;7.28;;;;;33.90;96503.00;;;;8313450;28;20252;-67
2023/09/10 15:57:25;;;;;;;8.70;6.57;;;;;34.10;96500.00;;;;8314665;28;20240;-66
2023/09/10 16:01:29;;;;;;;7.93;6.55;;;;;34.20;96505.00;;;;8313979;28;20202;-67
2023/09/10 16:05:35;;;;;;;7.47;6.63;;;;;34.20;96499.00;;;;8313961;28;20215;-67
2023/09/10 16:09:38;;;;;;;14.10;7.20;;;;;34.30;96494.00;;;;8312112;28;20233;-67
2023/09/10 16:13:43;;;;;;;9.30;6.88;;;;;34.40;96498.00;;;;8309483;28;20312;-67
2023/09/10 16:17:49;;;;;;;7.07;6.40;;;;;34.40;96501.00;;;;8308516;28;20312;-67
2023/09/10 16:21:54;;;;;;;12.85;6.78;;;;;34.40;96497.00;;;;8316134;28;20204;-66
2023/09/10 16:25:57;;;;;;;7.80;6.63;;;;;34.30;96500.00;;;;8312239;28;20199;-67
2023/09/10 16:30:02;;;;;;;8.43;6.75;;;;;34.20;96493.00;;;;8309984;28;20229;-68
2023/09/10 16:34:08;;;;;;;9.02;7.20;;;;;33.90;96499.00;;;;8314790;28;20265;-67
2023/09/10 16:38:14;;;;;;;9.05;7.22;;;;;33.40;96502.00;;;;8314955;28;20220;-68
2023/09/10 16:42:17;;;;;;;9.98;7.13;;;;;33.00;96501.00;;;;8314827;28;20209;-68
2023/09/10 16:46:22;;;;;;;9.30;7.20;;;;;32.50;96496.00;;;;8289708;28;20209;-68
2023/09/10 16:50:25;;;;;;;9.75;7.72;;;;;32.10;96502.00;;;;8306648;28;20210;-68
2023/09/10 16:54:28;;;;;;;8.43;7.22;;;;;31.70;96510.00;;;;8313749;28;20229;-67
2023/09/10 16:58:35;;;;;;;23.95;8.15;;;;;31.30;96498.00;;;;8309401;28;20796;-67
2023/09/10 17:02:39;;;;;;;9.77;7.30;;;;;30.80;96499.00;;;;8309116;28;20251;-68
2023/09/10 17:06:47;;;;;;;9.80;7.70;;;;;30.40;96500.00;;;;8315022;28;20193;-68
2023/09/10 17:10:50;;;;;;;9.77;7.18;;;;;29.90;96503.00;;;;8306553;28;20316;-68
2023/09/10 17:14:53;;;;;;;9.48;7.80;;;;;29.20;96499.00;;;;8314660;28;20850;-67
2023/09/10 17:18:58;;;;;;;8.77;7.75;;;;;28.70;96488.00;;;;8312081;28;20237;-67
2023/09/10 17:23:01;;;;;;;9.63;8.23;;;;;28.20;96498.00;;;;8307271;28;20206;-67
2023/09/10 17:27:10;;;;;;;9.98;7.80;;;;;27.70;96498.00;;;;8314866;28;20201;-67
2023/09/10 17:31:15;;;;;;;10.23;8.00;;;;;27.20;96500.00;;;;8318038;28;20597;-67
2023/09/10 17:35:23;;;;;;;13.55;8.60;;;;;26.90;96495.00;;;;8317289;28;20242;-67
2023/09/10 17:39:27;;;;;;;11.07;8.02;;;;;26.60;96498.00;;;;8324457;28;20193;-67
2023/09/10 17:43:33;;;;;;;10.05;8.63;;;;;26.30;96501.00;;;;8318735;28;20674;-67
2023/09/10 17:47:37;;;;;;;12.88;8.85;;;;;26.10;96504.00;;;;8327702;28;20204;-67
2023/09/10 17:51:42;;;;;;;11.60;8.43;;;;;25.80;96497.00;;;;8310440;28;20209;-67
2023/09/10 17:55:48;;;;;;;15.18;8.48;;;;;25.60;96504.00;;;;8321430;28;20259;-67
2023/09/10 17:59:51;;;;;;;11.02;8.88;;;;;25.40;96509.00;;;;8333355;28;20287;-67
2023/09/10 18:03:56;;;;;;;27.05;10.80;;;;;25.20;96511.00;;;;8320593;28;20225;-66
2023/09/10 18:08:01;;;;;;;12.82;9.27;;;;;25.00;96508.00;;;;8312417;28;20799;-67
2023/09/10 18:12:05;;;;;;;12.52;8.75;;;;;24.80;96511.00;;;;8318647;28;20201;-67
2023/09/10 18:16:10;;;;;;;11.93;9.10;;;;;24.60;96515.00;;;;8313638;28;20246;-67
2023/09/10 18:20:17;;;;;;;13.68;9.60;;;;;24.40;96519.00;;;;8326366;28;20201;-67
2023/09/10 18:24:23;;;;;;;14.98;9.95;;;;;24.30;96522.00;;;;8323515;28;20211;-67
2023/09/10 18:28:29;;;;;;;15.15;9.77;;;;;24.10;96515.00;;;;8337852;28;20208;-67
2023/09/10 18:32:33;;;;;;;13.73;9.90;;;;;24.00;96523.00;;;;8312034;28;20208;-67
2023/09/10 18:36:48;;;;;;;13.18;10.45;;;;;23.80;96523.00;;;;8318447;28;20263;-67
2023/09/10 18:40:55;;;;;;;13.30;10.48;;;;;23.70;96520.00;;;;8316454;28;20260;-67
2023/09/10 18:45:00;;;;;;;12.20;9.80;;;;;23.50;96531.00;;;;8318058;28;20206;-67
2023/09/10 18:49:04;;;;;;;19.75;10.10;;;;;23.40;96522.00;;;;8314619;28;20197;-67
2023/09/10 18:53:07;;;;;;;15.30;9.80;;;;;23.30;96527.00;;;;8316796;28;20317;-67
2023/09/10 18:57:15;;;;;;;16.23;10.88;;;;;23.10;96519.00;;;;8317468;28;20641;-67
2023/09/10 19:01:19;;;;;;;14.18;10.57;;;;;23.00;96523.00;;;;8318414;28;20625;-67
2023/09/10 19:05:24;;;;;;;13.40;10.70;;;;;22.90;96520.00;;;;8315264;28;20288;-67
2023/09/10 19:09:28;;;;;;;16.15;10.23;;;;;22.80;96522.00;;;;8318714;28;21023;-67
2023/09/10 19:13:33;;;;;;;15.32;10.93;;;;;22.70;96521.00;;;;8317490;28;20237;-67
2023/09/10 19:17:37;;;;;;;19.05;11.15;;;;;22.70;96517.00;;;;8328126;28;20682;-67
2023/09/10 19:21:40;;;;;;;28.23;11.50;;;;;22.60;96520.00;;;;8327642;28;20198;-67
2023/09/10 19:25:45;;;;;;;15.98;11.10;;;;;22.60;96526.00;;;;8324894;28;20232;-67
2023/09/10 19:29:49;;;;;;;14.23;12.13;;;;;22.50;96525.00;;;;8319035;28;20208;-67
2023/09/10 19:33:52;;;;;;;10.95;9.75;;;;;22.50;96518.00;;;;8321384;28;20291;-68
2023/09/10 19:37:56;;;;;;;13.43;10.60;;;;;22.40;96524.00;;;;8331302;28;20228;-67
2023/09/10 19:42:02;;;;;;;16.55;11.73;;;;;22.30;96528.00;;;;8329763;28;20195;-67
2023/09/10 19:46:09;;;;;;;13.63;10.30;;;;;22.10;96524.00;;;;8337918;28;20207;-68
2023/09/10 19:50:12;;;;;;;15.65;11.18;;;;;22.00;96523.00;;;;8292220;28;20202;-66
2023/09/10 19:54:16;;;;;;;15.77;10.88;;;;;21.90;96526.00;;;;8320661;28;20197;-68
2023/09/10 19:58:19;;;;;;;13.63;10.02;;;;;21.80;96519.00;;;;8315922;28;20229;-67
2023/09/10 20:02:28;;;;;;;13.23;11.07;;;;;21.60;96521.00;;;;8323643;28;20232;-68
2023/09/10 20:06:34;;;;;;;13.40;10.20;;;;;21.50;96521.00;;;;8309471;28;20198;-67
2023/09/10 20:10:37;;;;;;;12.05;10.07;;;;;21.40;96519.00;;;;8294852;28;20289;-67